createdAt,value
2018-02-23T00:00:38.542Z,24.35
2018-02-23T00:01:40.702Z,24.90
2018-02-23T00:02:42.198Z,24.20
2018-02-23T00:03:44.334Z,24.40
2018-02-23T00:04:45.718Z,24.15
2018-02-23T00:05:48.578Z,24.87
2018-02-23T00:06:50.298Z,24.33
2018-02-23T00:07:51.707Z,24.27
2018-02-23T00:08:53.090Z,24.92
2018-02-23T00:09:55.362Z,26.25
2018-02-23T00:10:59.790Z,26.15
2018-02-23T00:12:37.410Z,24.08
2018-02-23T00:13:39.074Z,25.92
2018-02-23T00:14:40.996Z,25.23
2018-02-23T00:15:44.402Z,24.25
2018-02-23T00:16:47.506Z,23.83
2018-02-23T00:17:49.897Z,25.48
2018-02-23T00:18:51.306Z,26.12
2018-02-23T00:19:53.422Z,24.58
2018-02-23T00:20:55.101Z,26.67
2018-02-23T00:21:56.973Z,24.87
2018-02-23T00:22:59.950Z,24.30
2018-02-23T00:24:02.153Z,24.33
2018-02-23T00:25:05.821Z,25.42
2018-02-23T00:26:08.840Z,24.87
2018-02-23T00:27:10.668Z,24.80
2018-02-23T00:28:12.366Z,25.08
2018-02-23T00:29:13.762Z,24.75
2018-02-23T00:30:15.152Z,24.35
2018-02-23T00:31:16.554Z,25.85
2018-02-23T00:32:17.956Z,23.83
2018-02-23T00:33:19.630Z,24.58
2018-02-23T00:34:21.038Z,25.25
2018-02-23T00:35:22.442Z,25.27
2018-02-23T00:36:23.852Z,24.40
2018-02-23T00:37:25.316Z,24.48
2018-02-23T00:38:28.486Z,24.60
2018-02-23T00:39:29.910Z,25.45
2018-02-23T00:40:32.406Z,26.37
2018-02-23T00:41:36.017Z,24.12
2018-02-23T00:42:38.144Z,24.05
2018-02-23T00:43:40.156Z,23.95
2018-02-23T00:44:41.550Z,24.33
2018-02-23T00:45:42.948Z,23.30
2018-02-23T00:46:44.346Z,24.92
2018-02-23T00:47:45.726Z,24.77
2018-02-23T00:48:47.370Z,23.77
2018-02-23T00:49:48.762Z,21.92
2018-02-23T00:50:50.558Z,22.77
2018-02-23T00:52:50.666Z,23.90
2018-02-23T00:53:52.223Z,25.17
2018-02-23T00:54:53.670Z,23.90
2018-02-23T00:55:55.220Z,24.48
2018-02-23T00:56:57.808Z,24.50
2018-02-23T00:57:59.250Z,24.33
2018-02-23T00:59:00.693Z,24.92
2018-02-23T01:01:00.022Z,23.87
2018-02-23T01:02:02.892Z,25.25
2018-02-23T01:03:06.985Z,22.60
2018-02-23T01:04:08.873Z,23.77
2018-02-23T01:05:10.709Z,26.40
2018-02-23T01:06:12.163Z,25.50
2018-02-23T01:07:14.285Z,24.23
2018-02-23T01:08:15.670Z,23.17
2018-02-23T01:09:17.358Z,23.83
2018-02-23T01:10:19.494Z,24.75
2018-02-23T01:11:20.876Z,24.63
2018-02-23T01:12:23.394Z,22.77
2018-02-23T01:13:24.794Z,20.52
2018-02-23T01:14:27.097Z,24.40
2018-02-23T01:15:29.198Z,24.17
2018-02-23T01:16:30.603Z,24.33
2018-02-23T01:17:34.906Z,22.65
2018-02-23T01:18:38.002Z,22.30
2018-02-23T01:19:41.326Z,23.40
2018-02-23T01:20:43.482Z,24.40
2018-02-23T01:21:44.878Z,22.62
2018-02-23T01:22:46.262Z,23.40
2018-02-23T01:23:48.406Z,23.98
2018-02-23T01:24:51.208Z,22.50
2018-02-23T01:25:54.114Z,25.15
2018-02-23T01:26:55.939Z,24.33
2018-02-23T01:27:58.074Z,25.40
2018-02-23T01:28:59.614Z,23.20
2018-02-23T01:30:02.727Z,22.87
2018-02-23T01:31:05.818Z,23.35
2018-02-23T01:32:07.861Z,23.30
2018-02-23T01:33:09.714Z,24.30
2018-02-23T01:34:11.186Z,23.10
2018-02-23T01:35:14.058Z,22.20
2018-02-23T01:36:15.442Z,25.12
2018-02-23T01:37:16.828Z,23.45
2018-02-23T01:38:18.211Z,22.90
2018-02-23T01:39:19.623Z,23.00
2018-02-23T01:40:21.286Z,23.95
2018-02-23T01:41:23.422Z,23.85
2018-02-23T01:42:25.941Z,23.10
2018-02-23T01:43:29.331Z,24.92
2018-02-23T01:44:30.727Z,24.00
2018-02-23T01:45:34.710Z,22.77
2018-02-23T01:46:37.729Z,21.85
2018-02-23T01:47:39.509Z,22.62
2018-02-23T01:48:41.702Z,23.83
2018-02-23T01:49:43.079Z,22.67
2018-02-23T01:51:43.865Z,23.02
2018-02-23T01:52:45.998Z,23.87
2018-02-23T01:53:47.394Z,23.95
2018-02-23T01:54:48.794Z,24.08
2018-02-23T01:55:50.186Z,23.38
2018-02-23T01:56:52.351Z,24.95
2018-02-23T01:57:54.522Z,23.73
2018-02-23T01:58:56.569Z,23.50
2018-02-23T01:59:58.597Z,23.60
2018-02-23T02:01:00.023Z,21.48
2018-02-23T02:02:04.799Z,25.77
2018-02-23T02:03:07.992Z,24.77
2018-02-23T02:04:11.338Z,24.35
2018-02-23T02:05:13.470Z,23.80
2018-02-23T02:06:14.867Z,25.50
2018-02-23T02:07:17.670Z,25.30
2018-02-23T02:08:19.066Z,24.35
2018-02-23T02:09:20.454Z,24.33
2018-02-23T02:10:23.320Z,24.37
2018-02-23T02:11:24.723Z,25.60
2018-02-23T02:12:27.703Z,23.95
2018-02-23T02:13:30.906Z,25.17
2018-02-23T02:14:34.333Z,24.08
2018-02-23T02:15:37.279Z,24.83
2018-02-23T02:16:39.286Z,25.02
2018-02-23T02:17:41.077Z,24.08
2018-02-23T02:19:24.470Z,24.70
2018-02-23T02:20:26.243Z,23.38
2018-02-23T02:21:29.070Z,26.87
2018-02-23T02:22:32.586Z,25.48
2018-02-23T02:23:36.332Z,25.17
2018-02-23T02:24:38.252Z,25.27
2018-02-23T02:26:25.752Z,24.05
2018-02-23T02:27:27.582Z,24.12
2018-02-23T02:28:29.330Z,27.15
2018-02-23T02:29:30.763Z,25.15
2018-02-23T02:30:35.107Z,25.15
2018-02-23T02:31:37.065Z,25.35
2018-02-23T02:32:39.665Z,26.92
2018-02-23T02:33:41.874Z,27.00
2018-02-23T02:34:44.986Z,26.20
2018-02-23T02:35:46.375Z,25.90
2018-02-23T02:36:47.775Z,25.88
2018-02-23T02:37:49.898Z,25.20
2018-02-23T02:38:52.028Z,25.35
2018-02-23T02:39:53.875Z,24.70
2018-02-23T02:40:56.388Z,24.65
2018-02-23T02:41:58.248Z,25.73
2018-02-23T02:42:59.665Z,23.75
2018-02-23T02:44:01.082Z,24.08
2018-02-23T02:54:48.350Z,22.10
2018-02-23T02:55:49.750Z,25.45
2018-02-23T02:56:51.136Z,25.37
2018-02-23T02:57:53.269Z,25.50
2018-02-23T02:58:55.749Z,24.37
2018-02-23T02:59:59.261Z,26.50
2018-02-23T03:01:00.636Z,25.95
2018-02-23T03:02:02.201Z,25.88
2018-02-23T03:03:04.457Z,24.75
2018-02-23T03:04:06.745Z,25.25
2018-02-23T03:05:09.226Z,25.80
2018-02-23T03:06:10.603Z,25.23
2018-02-23T03:07:12.026Z,25.65
2018-02-23T03:08:14.154Z,26.02
2018-02-23T03:09:15.594Z,24.90
2018-02-23T03:10:18.473Z,26.42
2018-02-23T03:11:19.881Z,26.65
2018-02-23T03:12:22.097Z,24.00
2018-02-23T03:13:23.491Z,25.90
2018-02-23T03:14:24.869Z,25.83
2018-02-23T03:15:26.259Z,27.05
2018-02-23T03:16:28.385Z,25.40
2018-02-23T03:17:30.499Z,27.08
2018-02-23T03:18:32.438Z,26.33
2018-02-23T03:19:34.258Z,27.48
2018-02-23T03:20:37.598Z,25.90
2018-02-23T03:21:39.121Z,26.67
2018-02-23T03:22:40.499Z,26.83
2018-02-23T03:23:41.888Z,26.50
2018-02-23T03:24:43.277Z,24.20
2018-02-23T03:25:46.196Z,26.90
2018-02-23T03:26:48.384Z,24.95
2018-02-23T03:27:50.474Z,25.77
2018-02-23T03:28:52.066Z,25.62
2018-02-23T03:29:53.609Z,24.85
2018-02-23T03:30:55.266Z,27.37
2018-02-23T03:31:56.678Z,26.42
2018-02-23T03:32:58.055Z,25.73
2018-02-23T03:33:59.443Z,25.98
2018-02-23T03:35:00.852Z,24.87
2018-02-23T03:36:03.117Z,25.12
2018-02-23T03:37:05.645Z,25.90
2018-02-23T03:38:07.217Z,25.40
2018-02-23T03:39:08.799Z,27.20
2018-02-23T03:40:10.189Z,26.87
2018-02-23T03:41:11.845Z,26.12
2018-02-23T03:42:13.246Z,26.65
2018-02-23T03:43:15.362Z,24.98
2018-02-23T03:44:16.748Z,23.90
2018-02-23T03:45:19.239Z,25.00
2018-02-23T03:46:20.647Z,24.95
2018-02-23T03:47:22.189Z,24.52
2018-02-23T03:48:23.823Z,25.08
2018-02-23T03:49:25.985Z,25.17
2018-02-23T03:50:27.391Z,26.17
2018-02-23T03:51:29.078Z,25.20
2018-02-23T03:52:31.455Z,26.50
2018-02-23T03:53:33.457Z,24.15
2018-02-23T03:54:35.394Z,26.52
2018-02-23T03:55:38.474Z,25.65
2018-02-23T03:56:40.027Z,26.55
2018-02-23T03:57:41.415Z,24.98
2018-02-23T03:58:42.793Z,25.50
2018-02-23T03:59:44.187Z,26.85
2018-02-23T04:00:45.581Z,26.75
2018-02-23T04:01:48.473Z,25.88
2018-02-23T04:02:49.851Z,25.10
2018-02-23T04:03:51.252Z,24.80
2018-02-23T04:04:52.645Z,26.00
2018-02-23T04:05:55.887Z,26.80
2018-02-23T04:06:57.681Z,24.90
2018-02-23T04:08:00.818Z,26.00
2018-02-23T04:09:03.515Z,26.85
2018-02-23T04:10:05.709Z,25.40
2018-02-23T04:11:08.559Z,24.05
2018-02-23T04:12:10.259Z,25.65
2018-02-23T04:13:11.958Z,24.95
2018-02-23T04:14:13.348Z,24.95
2018-02-23T04:15:15.489Z,24.25
2018-02-23T04:16:18.385Z,24.45
2018-02-23T04:17:20.504Z,24.52
2018-02-23T04:18:24.133Z,24.55
2018-02-23T04:19:26.681Z,25.08
2018-02-23T04:20:28.146Z,25.45
2018-02-23T04:21:29.513Z,26.08
2018-02-23T04:22:30.895Z,26.65
2018-02-23T04:23:34.785Z,24.70
2018-02-23T04:25:37.081Z,25.83
2018-02-23T04:26:38.773Z,25.50
2018-02-23T04:27:40.925Z,24.65
2018-02-23T04:28:42.373Z,25.55
2018-02-23T04:29:43.759Z,24.48
2018-02-23T04:30:45.881Z,26.27
2018-02-23T04:31:47.292Z,25.60
2018-02-23T04:32:49.404Z,26.92
2018-02-23T04:33:51.113Z,26.52
2018-02-23T04:34:54.403Z,25.90
2018-02-23T04:35:56.249Z,25.73
2018-02-23T04:37:32.438Z,25.23
2018-02-23T04:38:36.145Z,26.65
2018-02-23T04:39:39.418Z,24.50
2018-02-23T04:40:41.167Z,24.05
2018-02-23T04:41:42.562Z,24.98
2018-02-23T04:42:43.955Z,23.27
2018-02-23T04:43:45.353Z,25.95
2018-02-23T04:44:47.047Z,26.95
2018-02-23T04:45:48.436Z,26.33
2018-02-23T04:47:34.187Z,23.23
2018-02-23T04:48:37.058Z,25.90
2018-02-23T04:49:38.836Z,26.67
2018-02-23T04:50:41.976Z,26.15
2018-02-23T04:51:44.103Z,26.20
2018-02-23T04:52:46.222Z,24.52
2018-02-23T04:53:47.612Z,23.25
2018-02-23T04:54:48.984Z,24.95
2018-02-23T04:55:51.145Z,26.58
2018-02-23T04:56:53.273Z,23.83
2018-02-23T04:57:55.830Z,26.92
2018-02-23T04:58:57.423Z,25.83
2018-02-23T05:00:57.569Z,24.15
2018-02-23T05:01:59.005Z,24.48
2018-02-23T05:03:01.699Z,26.05
2018-02-23T05:04:04.548Z,25.75
2018-02-23T05:05:07.124Z,26.35
2018-02-23T05:06:09.842Z,27.05
2018-02-23T05:07:11.267Z,26.35
2018-02-23T05:08:12.685Z,24.77
2018-02-23T05:09:14.070Z,24.48
2018-02-23T05:10:15.453Z,24.55
2018-02-23T05:11:18.361Z,25.75
2018-02-23T05:12:19.752Z,26.08
2018-02-23T05:13:21.146Z,25.05
2018-02-23T05:14:23.307Z,25.55
2018-02-23T05:15:25.035Z,25.67
2018-02-23T05:16:26.973Z,25.90
2018-02-23T05:17:28.578Z,25.05
2018-02-23T05:18:29.978Z,25.00
2018-02-23T05:19:31.783Z,24.85
2018-02-23T05:20:35.384Z,27.17
2018-02-23T05:21:37.337Z,26.35
2018-02-23T05:22:39.069Z,26.58
2018-02-23T05:23:41.438Z,24.75
2018-02-23T05:24:42.831Z,25.33
2018-02-23T05:25:44.943Z,25.20
2018-02-23T05:26:46.349Z,25.70
2018-02-23T05:27:47.726Z,26.02
2018-02-23T05:28:49.896Z,24.00
2018-02-23T05:29:51.287Z,26.08
2018-02-23T05:30:52.682Z,25.02
2018-02-23T05:31:55.506Z,26.10
2018-02-23T05:32:57.151Z,26.15
2018-02-23T05:33:58.544Z,27.17
2018-02-23T05:35:02.980Z,26.15
2018-02-23T05:36:05.813Z,24.63
2018-02-23T05:37:08.831Z,27.20
2018-02-23T05:38:11.435Z,27.35
2018-02-23T05:39:12.826Z,26.77
2018-02-23T05:40:14.217Z,27.62
2018-02-23T05:41:16.345Z,28.87
2018-02-23T05:42:17.771Z,26.42
2018-02-23T05:43:19.197Z,27.83
2018-02-23T05:44:20.567Z,26.85
2018-02-23T05:45:23.464Z,26.65
2018-02-23T05:46:25.335Z,27.52
2018-02-23T05:47:28.585Z,24.92
2018-02-23T05:48:29.974Z,26.08
2018-02-23T05:49:33.749Z,26.35
2018-02-23T05:50:35.986Z,25.62
2018-02-23T05:51:38.778Z,27.08
2018-02-23T05:52:40.827Z,26.62
2018-02-23T05:54:39.565Z,27.65
2018-02-23T05:55:41.087Z,25.05
2018-02-23T05:56:42.571Z,26.73
2018-02-23T05:57:43.978Z,24.35
2018-02-23T05:58:45.371Z,26.10
2018-02-23T05:59:46.779Z,26.23
2018-02-23T06:00:48.177Z,26.02
2018-02-23T06:01:49.571Z,25.55
2018-02-23T06:02:50.981Z,26.37
2018-02-23T06:03:54.092Z,24.87
2018-02-23T06:04:56.155Z,26.67
2018-02-23T06:06:52.422Z,25.35
2018-02-23T06:07:54.035Z,26.58
2018-02-23T06:10:42.649Z,25.65
2018-02-23T06:11:44.037Z,25.85
2018-02-23T06:13:37.292Z,26.60
2018-02-23T06:14:40.603Z,26.75
2018-02-23T06:15:48.224Z,24.95
2018-02-23T06:16:49.615Z,22.95
2018-02-23T06:17:57.289Z,27.08
2018-02-23T06:19:01.289Z,25.25
2018-02-23T06:20:08.131Z,26.45
2018-02-23T06:21:09.789Z,25.35
2018-02-23T06:22:12.913Z,26.90
2018-02-23T06:23:14.315Z,25.62
2018-02-23T06:24:15.732Z,25.05
2018-02-23T06:25:17.140Z,26.70
2018-02-23T06:26:18.546Z,25.83
2018-02-23T06:27:19.971Z,26.10
2018-02-23T06:28:23.076Z,26.45
2018-02-23T06:29:24.963Z,27.40
2018-02-23T06:30:26.715Z,26.73
2018-02-23T06:31:29.690Z,26.10
2018-02-23T06:32:33.893Z,24.75
2018-02-23T06:33:36.907Z,25.85
2018-02-23T06:34:38.923Z,26.33
2018-02-23T06:35:40.551Z,25.27
2018-02-23T06:36:43.765Z,28.00
2018-02-23T06:37:45.303Z,26.65
2018-02-23T06:38:46.787Z,25.75
2018-02-23T06:39:48.299Z,26.20
2018-02-23T06:40:50.619Z,25.27
2018-02-23T06:41:52.224Z,26.48
2018-02-23T06:42:56.046Z,27.33
2018-02-23T06:43:59.224Z,24.67
2018-02-23T06:45:01.723Z,26.37
2018-02-23T06:46:04.311Z,25.88
2018-02-23T06:47:23.682Z,26.92
2018-02-23T06:48:25.731Z,27.87
2018-02-23T06:49:28.902Z,27.67
2018-02-23T06:50:31.207Z,27.58
2018-02-23T06:51:34.193Z,25.40
2018-02-23T06:53:13.982Z,26.75
2018-02-23T06:54:15.401Z,27.73
2018-02-23T06:55:16.804Z,27.27
2018-02-23T06:56:18.471Z,25.70
2018-02-23T06:57:19.879Z,26.73
2018-02-23T06:58:21.279Z,26.62
2018-02-23T06:59:22.660Z,27.27
2018-02-23T07:00:24.374Z,26.75
2018-02-23T07:01:26.347Z,27.80
2018-02-23T07:02:27.908Z,25.77
2018-02-23T07:03:29.324Z,25.65
2018-02-23T07:04:31.647Z,27.13
2018-02-23T07:05:34.422Z,26.70
2018-02-23T07:06:37.846Z,25.55
2018-02-23T07:07:40.405Z,26.35
2018-02-23T07:08:41.807Z,26.75
2018-02-23T07:09:43.935Z,27.48
2018-02-23T07:10:45.325Z,27.77
2018-02-23T07:11:46.726Z,26.30
2018-02-23T07:12:48.122Z,29.00
2018-02-23T07:13:50.289Z,27.98
2018-02-23T07:14:51.667Z,25.88
2018-02-23T07:15:53.068Z,27.40
2018-02-23T07:16:55.053Z,25.88
2018-02-23T07:17:58.506Z,26.42
2018-02-23T07:19:00.225Z,26.67
2018-02-23T07:20:03.777Z,24.67
2018-02-23T07:21:06.411Z,23.77
2018-02-23T07:22:08.027Z,26.83
2018-02-23T07:23:09.431Z,26.10
2018-02-23T07:24:11.087Z,27.77
2018-02-23T07:25:12.478Z,27.33
2018-02-23T07:26:14.598Z,26.75
2018-02-23T07:27:16.122Z,25.70
2018-02-23T07:28:18.853Z,25.00
2018-02-23T07:29:20.261Z,25.20
2018-02-23T07:30:23.923Z,26.98
2018-02-23T07:31:25.835Z,25.88
2018-02-23T07:32:29.187Z,27.25
2018-02-23T07:33:30.945Z,25.73
2018-02-23T07:34:35.412Z,27.62
2018-02-23T07:35:38.716Z,25.95
2018-02-23T07:36:40.215Z,25.73
2018-02-23T07:37:41.897Z,27.35
2018-02-23T07:38:44.047Z,25.35
2018-02-23T07:39:46.186Z,24.52
2018-02-23T07:40:47.594Z,25.83
2018-02-23T07:41:50.103Z,25.83
2018-02-23T07:42:51.505Z,26.42
2018-02-23T07:43:53.742Z,26.08
2018-02-23T07:44:57.330Z,27.35
2018-02-23T07:45:59.445Z,27.25
2018-02-23T07:47:02.210Z,24.37
2018-02-23T07:48:05.287Z,26.62
2018-02-23T07:49:08.678Z,24.85
2018-02-23T07:50:10.567Z,25.70
2018-02-23T07:51:12.774Z,25.42
2018-02-23T07:52:14.933Z,24.42
2018-02-23T07:53:16.375Z,28.25
2018-02-23T07:54:17.777Z,25.10
2018-02-23T07:55:19.168Z,24.87
2018-02-23T07:56:20.581Z,25.25
2018-02-23T07:57:23.707Z,25.80
2018-02-23T07:58:26.635Z,27.73
2018-02-23T07:59:29.817Z,26.12
2018-02-23T08:00:33.982Z,26.40
2018-02-23T08:01:37.387Z,24.55
2018-02-23T08:02:39.227Z,24.70
2018-02-23T08:03:40.730Z,24.40
2018-02-23T08:04:43.265Z,26.85
2018-02-23T08:05:45.781Z,25.67
2018-02-23T08:06:48.337Z,25.02
2018-02-23T08:07:50.464Z,25.52
2018-02-23T08:08:51.871Z,26.42
2018-02-23T08:09:53.251Z,27.90
2018-02-23T08:10:56.278Z,27.30
2018-02-23T08:11:58.952Z,25.83
2018-02-23T08:13:00.878Z,24.52
2018-02-23T08:14:04.243Z,25.45
2018-02-23T08:15:07.715Z,25.10
2018-02-23T08:16:09.523Z,25.75
2018-02-23T08:17:10.933Z,26.35
2018-02-23T08:18:14.027Z,26.33
2018-02-23T08:19:15.711Z,24.80
2018-02-23T08:20:18.841Z,26.37
2018-02-23T08:21:20.215Z,25.00
2018-02-23T08:22:21.973Z,25.60
2018-02-23T08:23:24.099Z,26.23
2018-02-23T08:24:26.655Z,26.37
2018-02-23T08:25:28.831Z,26.95
2018-02-23T08:26:30.240Z,24.33
2018-02-23T08:27:35.264Z,26.52
2018-02-23T08:28:37.709Z,27.52
2018-02-23T08:29:39.691Z,27.25
2018-02-23T08:30:41.836Z,26.15
2018-02-23T08:31:43.227Z,26.95
2018-02-23T08:32:46.305Z,26.48
2018-02-23T08:33:47.697Z,25.60
2018-02-23T08:34:49.381Z,26.75
2018-02-23T08:35:51.518Z,25.33
2018-02-23T08:36:53.651Z,25.83
2018-02-23T08:37:55.418Z,26.02
2018-02-23T08:38:57.309Z,27.02
2018-02-23T08:39:58.741Z,25.85
2018-02-23T08:41:00.118Z,25.67
2018-02-23T08:42:03.201Z,24.80
2018-02-23T08:43:06.102Z,25.25
2018-02-23T08:44:09.302Z,27.10
2018-02-23T08:45:11.642Z,22.77
2018-02-23T08:46:14.747Z,24.42
2018-02-23T08:47:18.623Z,26.02
2018-02-23T08:48:21.769Z,27.52
2018-02-23T08:49:24.064Z,27.52
2018-02-23T08:50:26.557Z,25.75
2018-02-23T08:51:29.326Z,25.52
2018-02-23T08:52:33.143Z,26.05
2018-02-23T08:53:36.398Z,25.83
2018-02-23T08:54:39.554Z,25.75
2018-02-23T08:55:40.997Z,25.70
2018-02-23T08:56:42.395Z,26.60
2018-02-23T08:57:46.737Z,24.12
2018-02-23T08:58:49.933Z,26.37
2018-02-23T08:59:53.411Z,27.25
2018-02-23T09:00:55.399Z,25.85
2018-02-23T09:01:59.299Z,26.10
2018-02-23T09:03:03.769Z,26.37
2018-02-23T09:04:06.929Z,25.42
2018-02-23T09:05:08.394Z,26.05
2018-02-23T09:06:10.073Z,26.17
2018-02-23T09:07:12.965Z,26.67
2018-02-23T09:08:16.041Z,25.77
2018-02-23T09:09:17.421Z,26.02
2018-02-23T09:10:20.516Z,27.87
2018-02-23T09:11:21.939Z,26.23
2018-02-23T09:12:23.683Z,25.33
2018-02-23T09:13:26.297Z,25.50
2018-02-23T09:14:29.428Z,26.58
2018-02-23T09:15:34.627Z,25.98
2018-02-23T09:16:37.335Z,26.17
2018-02-23T09:17:39.397Z,25.92
2018-02-23T09:18:40.820Z,25.42
2018-02-23T09:19:42.947Z,26.40
2018-02-23T09:20:44.335Z,25.77
2018-02-23T09:21:46.846Z,26.25
2018-02-23T09:22:48.233Z,26.27
2018-02-23T09:23:49.629Z,26.23
2018-02-23T09:24:51.030Z,25.90
2018-02-23T09:25:52.405Z,26.05
2018-02-23T09:26:55.206Z,26.05
2018-02-23T09:27:58.516Z,25.70
2018-02-23T09:29:05.840Z,26.65
2018-02-23T09:30:07.528Z,27.02
2018-02-23T09:31:09.400Z,25.42
2018-02-23T09:32:25.929Z,27.77
2018-02-23T09:33:41.281Z,25.25
2018-02-23T09:34:42.702Z,26.12
2018-02-23T09:35:44.275Z,25.10
2018-02-23T09:36:47.498Z,24.85
2018-02-23T09:37:49.927Z,24.45
2018-02-23T09:38:53.014Z,26.58
2018-02-23T09:39:54.639Z,25.52
2018-02-23T09:40:56.723Z,25.20
2018-02-23T09:41:59.857Z,25.85
2018-02-23T09:43:03.811Z,25.88
2018-02-23T09:44:07.349Z,26.58
2018-02-23T09:45:09.241Z,26.08
2018-02-23T09:46:11.042Z,26.60
2018-02-23T09:47:13.150Z,25.65
2018-02-23T09:48:14.565Z,25.45
2018-02-23T09:49:58.755Z,26.00
2018-02-23T09:51:00.145Z,25.42
2018-02-23T09:52:05.511Z,24.80
2018-02-23T09:53:08.119Z,23.90
2018-02-23T09:54:10.003Z,25.10
2018-02-23T09:55:11.486Z,25.00
2018-02-23T09:56:12.900Z,26.17
2018-02-23T09:57:14.295Z,27.67
2018-02-23T09:58:15.693Z,25.27
2018-02-23T09:59:19.091Z,25.62
2018-02-23T10:00:20.493Z,25.00
2018-02-23T10:01:21.902Z,26.98
2018-02-23T10:02:23.291Z,25.25
2018-02-23T10:03:25.857Z,26.52
2018-02-23T10:04:29.113Z,26.42
2018-02-23T10:05:30.543Z,26.52
2018-02-23T10:06:34.521Z,25.92
2018-02-23T10:07:38.036Z,25.42
2018-02-23T10:08:39.925Z,26.95
2018-02-23T10:09:42.087Z,25.88
2018-02-23T10:10:45.187Z,25.25
2018-02-23T10:11:46.594Z,25.23
2018-02-23T10:12:49.116Z,25.45
2018-02-23T10:13:50.505Z,26.50
2018-02-23T10:14:51.944Z,24.55
2018-02-23T10:15:54.300Z,27.35
2018-02-23T10:16:56.163Z,26.48
2018-02-23T10:17:57.853Z,25.77
2018-02-23T10:18:59.283Z,24.45
2018-02-23T10:20:02.386Z,25.12
2018-02-23T10:22:02.439Z,26.15
2018-02-23T10:23:06.719Z,25.83
2018-02-23T10:24:10.369Z,26.52
2018-02-23T10:25:11.798Z,25.90
2018-02-23T10:26:13.927Z,25.65
2018-02-23T10:27:15.335Z,25.25
2018-02-23T10:28:16.732Z,25.77
2018-02-23T10:29:18.855Z,26.17
2018-02-23T10:30:20.329Z,26.80
2018-02-23T10:31:21.735Z,29.83
2018-02-23T10:32:23.138Z,27.40
2018-02-23T10:33:24.791Z,27.08
2018-02-23T10:34:28.078Z,25.95
2018-02-23T10:35:31.013Z,29.37
2018-02-23T10:36:33.796Z,26.67
2018-02-23T10:37:36.523Z,27.58
2018-02-23T10:38:55.174Z,27.02
2018-02-23T10:39:57.253Z,26.85
2018-02-23T10:40:59.491Z,27.95
2018-02-23T10:42:00.909Z,26.05
2018-02-23T10:43:04.911Z,25.08
2018-02-23T10:44:08.669Z,24.30
2018-02-23T10:45:13.555Z,25.33
2018-02-23T10:46:15.399Z,25.15
2018-02-23T10:47:17.260Z,31.20
2018-02-23T10:48:20.083Z,29.95
2018-02-23T10:49:23.388Z,30.95
2018-02-23T10:50:26.777Z,32.72
2018-02-23T10:51:28.952Z,32.58
2018-02-23T10:52:30.342Z,27.55
2018-02-23T10:53:33.230Z,24.95
2018-02-23T10:54:36.385Z,29.27
2018-02-23T10:55:39.325Z,26.92
2018-02-23T10:56:41.034Z,26.20
2018-02-23T10:57:42.462Z,27.98
2018-02-23T10:58:43.919Z,28.15
2018-02-23T10:59:45.345Z,27.52
2018-02-23T11:00:46.733Z,48.08
2018-02-23T11:01:48.172Z,79.05
2018-02-23T11:02:49.591Z,64.22
2018-02-23T11:03:52.751Z,37.70
2018-02-23T11:04:54.189Z,43.33
2018-02-23T11:05:56.003Z,36.35
2018-02-23T11:06:57.949Z,36.45
2018-02-23T11:07:59.420Z,36.60
2018-02-23T11:09:03.853Z,31.30
2018-02-23T11:10:06.173Z,34.80
2018-02-23T11:11:07.965Z,42.25
2018-02-23T11:12:09.895Z,50.25
2018-02-23T11:13:11.347Z,49.20
2018-02-23T11:14:12.747Z,40.47
2018-02-23T11:15:14.175Z,33.22
2018-02-23T11:16:17.346Z,35.72
2018-02-23T11:17:18.777Z,30.50
2018-02-23T11:18:20.177Z,32.15
2018-02-23T11:19:21.585Z,29.52
2018-02-23T11:20:23.749Z,31.40
2018-02-23T11:21:27.271Z,28.50
2018-02-23T11:22:28.994Z,30.00
2018-02-23T11:23:30.392Z,29.10
2018-02-23T11:24:34.053Z,29.00
2018-02-23T11:25:36.957Z,26.33
2018-02-23T11:26:39.478Z,30.77
2018-02-23T11:27:41.197Z,30.05
2018-02-23T11:28:44.304Z,29.42
2018-02-23T11:29:47.417Z,31.50
2018-02-23T11:30:48.850Z,29.98
2018-02-23T11:31:50.983Z,28.00
2018-02-23T11:32:53.129Z,28.20
2018-02-23T11:33:54.940Z,30.75
2018-02-23T11:34:56.921Z,30.37
2018-02-23T11:35:59.182Z,29.02
2018-02-23T11:37:04.071Z,29.42
2018-02-23T11:38:07.715Z,29.42
2018-02-23T11:39:10.859Z,29.35
2018-02-23T11:40:12.983Z,29.52
2018-02-23T11:41:14.383Z,28.58
2018-02-23T11:42:17.485Z,33.63
2018-02-23T11:43:19.151Z,35.33
2018-02-23T11:44:20.545Z,34.10
2018-02-23T11:45:23.028Z,33.97
2018-02-23T11:46:26.409Z,30.98
2018-02-23T11:47:28.143Z,30.50
2018-02-23T11:48:30.346Z,30.52
2018-02-23T11:49:33.113Z,30.58
2018-02-23T11:50:36.887Z,29.77
2018-02-23T11:51:39.623Z,30.48
2018-02-23T11:52:42.751Z,30.75
2018-02-23T11:53:45.255Z,30.83
2018-02-23T11:54:46.669Z,29.70
2018-02-23T11:55:49.784Z,30.60
2018-02-23T11:56:51.956Z,31.37
2018-02-23T11:57:53.403Z,31.55
2018-02-23T11:58:54.988Z,30.75
2018-02-23T11:59:56.684Z,31.20
2018-02-23T12:00:58.226Z,28.50
2018-02-23T12:01:59.625Z,28.08
2018-02-23T12:03:01.015Z,28.08
2018-02-23T12:04:03.398Z,30.25
2018-02-23T12:05:06.949Z,30.08
2018-02-23T12:06:09.194Z,28.33
2018-02-23T12:07:10.581Z,28.95
2018-02-23T12:08:13.692Z,30.88
2018-02-23T12:09:15.098Z,28.65
2018-02-23T12:10:16.525Z,26.58
2018-02-23T12:11:19.047Z,28.25
2018-02-23T12:12:20.449Z,28.10
2018-02-23T12:13:21.835Z,26.50
2018-02-23T12:14:24.494Z,29.10
2018-02-23T12:15:26.187Z,29.58
2018-02-23T12:16:27.915Z,29.27
2018-02-23T12:17:31.017Z,27.55
2018-02-23T12:18:33.751Z,28.30
2018-02-23T12:19:36.201Z,27.40
2018-02-23T12:20:38.125Z,28.30
2018-02-23T12:21:40.052Z,28.75
2018-02-23T12:22:43.193Z,29.15
2018-02-23T12:23:44.588Z,28.85
2018-02-23T12:24:46.003Z,30.10
2018-02-23T12:25:48.161Z,30.00
2018-02-23T12:26:49.565Z,29.90
2018-02-23T12:27:50.962Z,30.75
2018-02-23T12:28:54.323Z,30.10
2018-02-23T12:29:56.079Z,29.12
2018-02-23T12:30:57.853Z,29.50
2018-02-23T12:32:00.953Z,27.92
2018-02-23T12:33:03.983Z,28.45
2018-02-23T12:34:07.565Z,29.80
2018-02-23T12:35:09.292Z,30.88
2018-02-23T12:36:10.766Z,31.85
2018-02-23T12:37:12.159Z,29.70
2018-02-23T12:38:13.560Z,29.40
2018-02-23T12:39:14.970Z,29.37
2018-02-23T12:40:18.083Z,28.33
2018-02-23T12:41:19.479Z,29.77
2018-02-23T12:42:20.899Z,28.33
2018-02-23T12:43:22.292Z,28.92
2018-02-23T12:44:23.674Z,27.83
2018-02-23T12:45:27.031Z,29.85
2018-02-23T12:46:29.179Z,27.05
2018-02-23T12:47:32.217Z,28.25
2018-02-23T12:48:36.450Z,27.58
2018-02-23T12:49:39.609Z,28.90
2018-02-23T12:50:41.035Z,29.92
2018-02-23T12:51:43.543Z,28.70
2018-02-23T12:52:44.990Z,27.13
2018-02-23T12:53:46.393Z,28.35
2018-02-23T12:54:47.782Z,28.70
2018-02-23T12:55:49.206Z,27.42
2018-02-23T12:56:50.618Z,30.10
2018-02-23T12:57:53.492Z,28.70
2018-02-23T12:58:55.037Z,28.67
2018-02-23T12:59:58.548Z,29.17
2018-02-23T13:00:59.995Z,28.90
2018-02-23T13:02:04.964Z,29.80
2018-02-23T13:03:07.499Z,29.87
2018-02-23T13:04:09.242Z,28.12
2018-02-23T13:05:11.023Z,30.37
2018-02-23T13:06:13.565Z,30.45
2018-02-23T13:07:15.694Z,29.45
2018-02-23T13:08:18.815Z,28.50
2018-02-23T13:09:20.207Z,28.00
2018-02-23T13:10:23.338Z,31.37
2018-02-23T13:11:26.479Z,28.25
2018-02-23T13:12:28.385Z,26.65
2018-02-23T13:13:30.566Z,29.58
2018-02-23T13:14:40.106Z,29.23
2018-02-23T13:15:43.546Z,26.50
2018-02-23T13:16:45.239Z,28.38
2018-02-23T13:17:47.753Z,27.33
2018-02-23T13:18:49.175Z,28.42
2018-02-23T13:19:51.322Z,27.98
2018-02-23T13:20:52.921Z,29.08
2018-02-23T13:21:56.205Z,27.50
2018-02-23T13:22:59.459Z,29.20
2018-02-23T13:24:00.871Z,28.73
2018-02-23T13:25:06.143Z,27.17
2018-02-23T13:26:09.665Z,27.60
2018-02-23T13:27:17.849Z,26.25
2018-02-23T13:31:20.483Z,26.10
2018-02-23T13:32:21.917Z,26.73
2018-02-23T13:33:23.344Z,26.20
2018-02-23T13:34:25.229Z,26.73
2018-02-23T13:35:28.765Z,26.98
2018-02-23T13:36:30.155Z,27.27
2018-02-23T13:37:33.291Z,28.75
2018-02-23T13:38:36.253Z,27.62
2018-02-23T13:39:38.983Z,27.25
2018-02-23T13:40:40.448Z,26.70
2018-02-23T13:41:41.871Z,28.15
2018-02-23T13:42:44.423Z,28.20
2018-02-23T13:43:46.545Z,26.92
2018-02-23T13:44:47.947Z,27.25
2018-02-23T13:45:49.383Z,25.27
2018-02-23T13:46:50.785Z,27.85
2018-02-23T13:47:52.217Z,27.17
2018-02-23T13:48:54.398Z,27.80
2018-02-23T13:49:56.211Z,25.65